createdAt,value
2022-08-16T00:02:56.406Z,19.3
2022-08-16T00:17:57.404Z,19
2022-08-16T00:32:57.217Z,19
2022-08-16T00:47:56.314Z,18.7
2022-08-16T01:02:56.311Z,18.7
2022-08-16T01:17:56.389Z,18.4
2022-08-16T01:33:01.605Z,18.2
2022-08-16T01:47:56.244Z,17.8
2022-08-16T02:02:56.199Z,17.9
2022-08-16T02:17:56.184Z,17.8
2022-08-16T02:32:56.160Z,17.8
2022-08-16T02:48:00.978Z,17.7
2022-08-16T03:02:56.399Z,17.5
2022-08-16T03:17:56.057Z,17.4
2022-08-16T03:32:56.027Z,17.2
2022-08-16T03:47:58.506Z,17.1
2022-08-16T04:02:56.005Z,16.9
2022-08-16T04:17:55.948Z,16.7
2022-08-16T04:32:55.916Z,16.7
2022-08-16T04:47:56.322Z,16.6
2022-08-16T05:02:56.565Z,16.6
2022-08-16T05:17:58.796Z,17
2022-08-16T05:32:55.820Z,19
2022-08-16T05:47:59.947Z,20.6
2022-08-16T06:02:55.800Z,21.6
2022-08-16T06:17:55.742Z,22.1
2022-08-16T06:32:55.712Z,22.9
2022-08-16T06:47:56.385Z,24.2
2022-08-16T07:02:55.990Z,25.8
2022-08-16T07:17:55.626Z,26.2
2022-08-16T07:32:55.653Z,26.6
2022-08-16T07:47:55.576Z,27.3
2022-08-16T08:02:55.613Z,27.9
2022-08-16T08:17:55.522Z,30
2022-08-16T08:32:59.867Z,30.5
2022-08-16T08:47:58.492Z,29.3
2022-08-16T09:02:55.662Z,28.6
2022-08-16T09:17:55.424Z,28.8
2022-08-16T09:32:55.423Z,29.6
2022-08-16T09:47:56.964Z,29.6
2022-08-16T10:02:55.519Z,30
2022-08-16T10:17:59.845Z,30.9
2022-08-16T10:32:55.310Z,29.7
2022-08-16T10:48:02.716Z,28.8
2022-08-16T11:02:58.163Z,29.3
2022-08-16T11:18:48.862Z,29.7
2022-08-16T11:32:55.203Z,30.1
2022-08-16T11:47:55.137Z,30.8
2022-08-16T12:02:55.142Z,30.9
2022-08-16T12:17:55.082Z,30.5
2022-08-16T12:32:57.884Z,30.9
2022-08-16T12:48:10.014Z,31.3
2022-08-16T13:02:55.046Z,31.3
2022-08-16T13:17:54.979Z,31.2
2022-08-16T13:32:54.989Z,31
2022-08-16T13:47:54.925Z,30.6
2022-08-16T14:02:58.852Z,30.3
2022-08-16T14:18:15.626Z,30.3
2022-08-16T14:32:55.179Z,30.4
2022-08-16T14:47:54.816Z,30.5
2022-08-16T15:02:54.836Z,30.6
2022-08-16T15:17:56.451Z,30.8
2022-08-16T15:32:54.765Z,30.6
2022-08-16T15:47:55.799Z,30.8
2022-08-16T16:02:54.717Z,31.1
2022-08-16T16:17:54.891Z,30.7
2022-08-16T16:32:54.656Z,30.7
2022-08-16T16:47:54.789Z,30.6
2022-08-16T17:02:54.673Z,30.3
2022-08-16T17:18:00.287Z,30
2022-08-16T17:32:54.946Z,29.8
2022-08-16T17:47:54.491Z,29.8
2022-08-16T18:02:54.816Z,29.7
2022-08-16T18:17:54.437Z,29.8
2022-08-16T18:32:54.442Z,29.1
2022-08-16T18:47:54.383Z,28.6
2022-08-16T19:02:58.773Z,28.1
2022-08-16T19:17:54.334Z,27.7
2022-08-16T19:32:54.327Z,27.4
2022-08-16T19:47:55.564Z,26.9
2022-08-16T20:02:54.299Z,26.6
2022-08-16T20:17:54.207Z,26.4
2022-08-16T20:32:54.207Z,26.4
2022-08-16T20:47:54.157Z,26.3
2022-08-16T21:02:54.175Z,26.1
2022-08-16T21:17:54.098Z,26
2022-08-16T21:32:54.100Z,25.8
2022-08-16T21:47:54.042Z,25.6
2022-08-16T22:02:54.210Z,25.4
2022-08-16T22:17:53.992Z,25.4
2022-08-16T22:32:53.997Z,25.3
2022-08-16T22:47:53.952Z,25.1
2022-08-16T23:02:53.942Z,24.8
2022-08-16T23:17:53.883Z,24.6
2022-08-16T23:32:53.897Z,24.3
2022-08-16T23:47:53.829Z,24.2
